»·PEaware :: N318DA KLAX-KSNA

N318DA :: KLAX-KSNA

FLIGHT INFORMATION

Flight Status: Arrived
Operator: Privately registered:
United States
More flights under this callsign
Pilot: Roland T. (32460)
Aircraft: CIRRUS SR-22
(SR22)
More flights by this aircraft type
Origin: KLAX Los Angeles Intl
United States
Destination: KSNA John Wayne-Orange Co
United States
More flights between these airports :: More routes between these airports
Route: SLI8 SLI
File this flight plan on PilotEdge
Remarks:
Altitude:
(Current/Filed)
4,000ft
Speed:
(Current/Filed)
160kts
Departed: 30-Nov-20 10:24 AM
Arrived: 30-Nov-20 11:01 AM
Distance/Time
Traveled:
1nm/0:37
Distance/Time
To Go:
Arrived

Flight Plot

Page will automatically refresh every two minutes.

Flight plan parsing failed; only flown route is shown


Map Options




Map Legend


Flown Route
Filed Route
Departure Airport
Arrival Airport
Navaid (VOR, NDB)
Fix

Horizontal Profiles

Position Reports

Time Latitude Longitude Heading Altitude Ground
Speed
30-Nov-20 09:35 33.941856 -118.418885 263 120ft 0kts
30-Nov-20 09:36 33.941856 -118.418885 263 120ft 0kts
30-Nov-20 09:37 33.941856 -118.418885 263 120ft 0kts
30-Nov-20 09:38 33.941856 -118.418885 263 120ft 0kts
30-Nov-20 09:39 33.941856 -118.418885 263 120ft 0kts
30-Nov-20 09:40 33.941856 -118.418885 263 120ft 0kts
30-Nov-20 09:41 33.941856 -118.418885 263 120ft 0kts
30-Nov-20 09:42 33.941856 -118.418885 263 120ft 0kts
30-Nov-20 09:43 33.941856 -118.418885 263 120ft 0kts
30-Nov-20 09:44 33.941856 -118.418885 263 120ft 0kts
30-Nov-20 09:45 33.941856 -118.418885 263 120ft 0kts
30-Nov-20 09:46 33.941856 -118.418885 263 120ft 0kts
30-Nov-20 09:47 33.941856 -118.418885 263 120ft 0kts
30-Nov-20 09:48 33.941856 -118.418885 263 120ft 0kts
30-Nov-20 09:49 33.941856 -118.418885 263 120ft 0kts
30-Nov-20 09:50 33.941856 -118.418885 263 120ft 0kts
30-Nov-20 09:51 33.941856 -118.418885 263 120ft 0kts
30-Nov-20 09:52 33.941856 -118.418885 263 120ft 0kts
30-Nov-20 09:53 33.941856 -118.418885 263 120ft 0kts
30-Nov-20 09:54 33.941856 -118.418885 263 120ft 0kts
30-Nov-20 09:55 33.941856 -118.418885 263 120ft 0kts
30-Nov-20 09:56 33.941856 -118.418885 263 120ft 0kts
30-Nov-20 09:57 33.941856 -118.418885 263 120ft 0kts
30-Nov-20 09:58 33.941856 -118.418885 263 120ft 0kts
30-Nov-20 09:59 33.941856 -118.418885 263 120ft 0kts
30-Nov-20 10:00 33.941856 -118.418885 263 120ft 0kts
30-Nov-20 10:01 33.941856 -118.418885 263 120ft 0kts
30-Nov-20 10:02 33.941856 -118.418885 263 120ft 0kts
30-Nov-20 10:03 33.941856 -118.418885 263 120ft 0kts
30-Nov-20 10:04 33.941856 -118.418885 263 120ft 0kts
30-Nov-20 10:05 33.941856 -118.418885 263 120ft 0kts
30-Nov-20 10:06 33.941996 -118.418383 120 120ft 16kts
30-Nov-20 10:07 33.938847 -118.417105 177 120ft 15kts
30-Nov-20 10:08 33.937585 -118.416862 173 120ft 0kts
30-Nov-20 10:09 33.937249 -118.416743 136 120ft 0kts
30-Nov-20 10:10 33.937169 -118.415758 82 120ft 18kts
30-Nov-20 10:11 33.937783 -118.409995 85 120ft 16kts
30-Nov-20 10:12 33.938280 -118.404925 84 120ft 15kts
30-Nov-20 10:13 33.938897 -118.398993 80 120ft 20kts
30-Nov-20 10:14 33.939640 -118.391733 82 120ft 23kts
30-Nov-20 10:15 33.940401 -118.384279 83 120ft 15kts
30-Nov-20 10:16 33.940741 -118.380879 82 120ft 13kts
30-Nov-20 10:17 33.940724 -118.380179 131 120ft 0kts
30-Nov-20 10:18 33.940724 -118.380179 131 120ft 0kts
30-Nov-20 10:19 33.940724 -118.380179 131 120ft 0kts
30-Nov-20 10:20 33.940724 -118.380179 131 120ft 0kts
30-Nov-20 10:21 33.940724 -118.380179 131 120ft 0kts
30-Nov-20 10:23 33.940121 -118.380008 187 120ft 16kts
30-Nov-20 10:24 33.937758 -118.399895 260 535ft 87kts
30-Nov-20 10:25 33.935287 -118.429133 261 1716ft 86kts
30-Nov-20 10:26 33.931361 -118.456637 260 2785ft 83kts
30-Nov-20 10:27 33.912848 -118.485757 214 2994ft 153kts
30-Nov-20 10:28 33.881077 -118.510957 214 3976ft 142kts
30-Nov-20 10:29 33.841305 -118.515370 155 3996ft 167kts
30-Nov-20 10:30 33.802748 -118.484915 119 3999ft 170kts
30-Nov-20 10:31 33.784405 -118.434147 112 4500ft 144kts
30-Nov-20 10:32 33.777029 -118.386821 83 4992ft 155kts
30-Nov-20 10:33 33.778286 -118.337673 89 4991ft 132kts
30-Nov-20 10:34 33.779031 -118.294986 88 4994ft 125kts
30-Nov-20 10:35 33.779786 -118.253756 88 4989ft 126kts
30-Nov-20 10:36 33.780587 -118.209170 88 4992ft 137kts
30-Nov-20 10:37 33.781433 -118.160512 89 4607ft 153kts
30-Nov-20 10:38 33.782288 -118.108549 89 4112ft 156kts
30-Nov-20 10:39 33.783060 -118.058565 89 3997ft 143kts
30-Nov-20 10:40 33.798824 -118.015962 64 3996ft 140kts
30-Nov-20 10:41 33.815005 -117.975634 64 3995ft 140kts
30-Nov-20 10:41 33.828452 -117.942112 64 3994ft 127kts
30-Nov-20 10:43 33.846153 -117.897977 64 3995ft 124kts
30-Nov-20 10:43 33.858659 -117.866749 64 3993ft 124kts
30-Nov-20 10:45 33.875550 -117.822753 66 3989ft 125kts
30-Nov-20 10:46 33.889023 -117.784351 67 3994ft 124kts
30-Nov-20 10:46 33.900282 -117.752243 67 3997ft 125kts
30-Nov-20 10:47 33.915101 -117.714192 60 3990ft 125kts
30-Nov-20 10:48 33.944465 -117.688719 31 3670ft 138kts
30-Nov-20 10:49 33.971040 -117.699553 261 3494ft 125kts
30-Nov-20 10:50 33.942553 -117.713520 178 3492ft 124kts
30-Nov-20 10:51 33.909695 -117.721205 204 3420ft 128kts
30-Nov-20 10:52 33.878379 -117.740311 209 3392ft 124kts
30-Nov-20 10:53 33.847976 -117.759694 209 3387ft 124kts
30-Nov-20 10:54 33.815961 -117.780522 213 3032ft 133kts
30-Nov-20 10:55 33.788647 -117.798951 208 2395ft 105kts
30-Nov-20 10:56 33.763121 -117.814749 208 1846ft 102kts
30-Nov-20 10:57 33.737610 -117.830509 208 1285ft 103kts
30-Nov-20 10:58 33.712227 -117.846327 208 747ft 103kts
30-Nov-20 10:59 33.686959 -117.862001 206 190ft 85kts
30-Nov-20 11:00 33.674818 -117.868620 152 56ft 9kts
30-Nov-20 11:01 33.673895 -117.867575 130 59ft 0kts
30-Nov-20 11:02 33.674467 -117.866896 29 58ft 12kts
30-Nov-20 11:03 33.676677 -117.865104 97 52ft 0kts
30-Nov-20 11:04 33.676677 -117.865104 97 52ft 0kts
30-Nov-20 11:05 33.676677 -117.865104 97 52ft 0kts
30-Nov-20 11:11 33.941158 -118.392839 359 120ft 0kts
30-Nov-20 11:12 33.941158 -118.392839 359 120ft 0kts
30-Nov-20 11:13 33.941158 -118.392839 359 120ft 0kts
30-Nov-20 11:14 33.941158 -118.392839 359 120ft 0kts

Navigation Log

Ident Type
Flight plan parsing failed, navigation log unavailable